Time;durP1;ratioP1;P1;durP2;ratioP2;P2;SDS_P1;SDS_P2;PMS_P1;PMS_P2;Temp;Humidity;BMP_temperature;BMP_pressure;BME280_temperature;BME280_humidity;BME280_pressure;Samples;Min_cycle;Max_cycle;Signal;HPM_P1;HPM_P2
2023/12/04 00:01:33;;;;;;;15.88;7.38;;;;;;;-4.71;100.00;99017.66;5031919;28;20021;-74
2023/12/04 00:03:59;;;;;;;13.63;6.53;;;;;;;-4.77;100.00;99002.19;5026284;28;20096;-74
2023/12/04 00:06:24;;;;;;;17.23;6.72;;;;;;;-4.63;100.00;99016.19;5014941;28;20025;-74
2023/12/04 00:08:49;;;;;;;13.52;6.10;;;;;;;-4.70;100.00;98999.06;5030529;28;20017;-74
2023/12/04 00:11:15;;;;;;;17.50;7.32;;;;;;;-4.62;100.00;99002.00;5026276;28;20061;-73
2023/12/04 00:13:40;;;;;;;13.00;6.15;;;;;;;-4.58;100.00;99001.84;5035962;28;20192;-74
2023/12/04 00:16:06;;;;;;;16.30;6.30;;;;;;;-4.65;100.00;98981.09;5041851;28;20029;-74
2023/12/04 00:18:31;;;;;;;14.90;6.78;;;;;;;-4.71;100.00;98980.69;5060101;28;20033;-73
2023/12/04 00:20:56;;;;;;;14.63;6.13;;;;;;;-4.68;100.00;98981.31;5033366;28;20026;-74
2023/12/04 00:23:21;;;;;;;13.52;6.00;;;;;;;-4.65;100.00;98981.09;5031931;28;20045;-74
2023/12/04 00:25:47;;;;;;;17.75;7.22;;;;;;;-4.75;100.00;98980.03;5048638;28;20029;-74
2023/12/04 00:28:12;;;;;;;14.45;6.32;;;;;;;-4.75;100.00;98977.38;5026274;28;20254;-75
2023/12/04 00:30:37;;;;;;;15.23;7.03;;;;;;;-4.77;100.00;98973.16;5032433;28;20033;-74
2023/12/04 00:33:03;;;;;;;13.07;5.60;;;;;;;-4.80;100.00;98962.81;5044176;28;20025;-73
2023/12/04 00:35:28;;;;;;;14.07;6.43;;;;;;;-4.79;100.00;98982.97;5042314;28;20092;-74
2023/12/04 00:37:53;;;;;;;17.73;8.05;;;;;;;-4.95;100.00;98951.47;5025639;28;20088;-74
2023/12/04 00:40:18;;;;;;;16.85;6.53;;;;;;;-4.79;100.00;98972.41;5029391;28;20024;-74
2023/12/04 00:42:44;;;;;;;17.75;7.00;;;;;;;-4.92;100.00;98946.88;5045057;28;20080;-74
2023/12/04 00:45:09;;;;;;;18.33;6.47;;;;;;;-4.96;100.00;98949.81;5045603;28;20021;-74
2023/12/04 00:47:34;;;;;;;12.98;5.55;;;;;;;-4.86;100.00;98953.53;5024717;28;20110;-74
2023/12/04 00:50:00;;;;;;;16.42;6.53;;;;;;;-4.89;100.00;98944.03;5046219;28;20408;-74
2023/12/04 00:52:25;;;;;;;18.33;8.35;;;;;;;-4.99;100.00;98947.38;5026827;28;20101;-74
2023/12/04 00:54:50;;;;;;;15.73;7.38;;;;;;;-5.17;100.00;98930.97;5027883;28;20128;-74
2023/12/04 00:57:15;;;;;;;14.93;6.32;;;;;;;-5.10;100.00;98951.56;5045560;28;20338;-74
2023/12/04 00:59:41;;;;;;;17.40;7.07;;;;;;;-5.20;100.00;98941.72;5020488;28;20045;-73
2023/12/04 01:02:06;;;;;;;17.90;6.70;;;;;;;-5.10;100.00;98958.63;5013822;28;20030;-73
2023/12/04 01:04:32;;;;;;;18.75;7.00;;;;;;;-5.18;100.00;98922.22;5028905;28;20301;-74
2023/12/04 01:06:57;;;;;;;17.27;6.72;;;;;;;-5.25;100.00;98934.09;5043549;28;20029;-74
2023/12/04 01:09:24;;;;;;;18.58;6.45;;;;;;;-5.12;100.00;98942.91;5028207;28;20229;-74
2023/12/04 01:11:52;;;;;;;19.80;6.40;;;;;;;-5.08;100.00;98939.13;5043097;28;20039;-73
2023/12/04 01:14:17;;;;;;;14.10;6.00;;;;;;;-5.12;100.00;98935.00;5021577;28;20040;-73
2023/12/04 01:16:42;;;;;;;16.35;6.55;;;;;;;-5.08;100.00;98935.66;5015684;28;20250;-73
2023/12/04 01:19:07;;;;;;;19.55;6.70;;;;;;;-5.08;100.00;98925.09;5011548;28;20036;-73
2023/12/04 01:21:33;;;;;;;15.90;6.13;;;;;;;-5.27;100.00;98920.16;5024541;28;20392;-74
2023/12/04 01:23:58;;;;;;;15.93;6.85;;;;;;;-5.22;100.00;98915.44;5026890;28;20056;-73
2023/12/04 01:26:23;;;;;;;15.20;5.88;;;;;;;-5.30;100.00;98915.94;5040137;28;20131;-74
2023/12/04 01:28:48;;;;;;;14.27;6.45;;;;;;;-5.13;100.00;98919.28;5042081;28;20099;-73
2023/12/04 01:31:14;;;;;;;16.17;6.05;;;;;;;-5.35;100.00;98893.47;5016125;28;20318;-72
2023/12/04 01:33:39;;;;;;;14.57;6.30;;;;;;;-5.17;100.00;98925.69;5023352;23;20021;-73
2023/12/04 01:36:05;;;;;;;13.50;5.78;;;;;;;-5.14;100.00;98928.97;5035809;28;20033;-73
2023/12/04 01:38:30;;;;;;;16.10;6.80;;;;;;;-5.09;100.00;98918.94;5044585;28;20032;-73
2023/12/04 01:40:56;;;;;;;17.17;6.47;;;;;;;-5.02;100.00;98919.41;5044880;28;20025;-73
2023/12/04 01:43:21;;;;;;;16.90;6.63;;;;;;;-5.00;100.00;98917.50;5044971;28;20394;-74
2023/12/04 01:45:46;;;;;;;16.13;7.07;;;;;;;-4.95;100.00;98910.13;5025049;28;20061;-74
2023/12/04 01:48:13;;;;;;;15.20;6.03;;;;;;;-4.93;100.00;98910.00;5007351;28;20021;-74
2023/12/04 01:50:39;;;;;;;15.43;6.20;;;;;;;-4.95;100.00;98902.22;5022881;28;20030;-73
2023/12/04 01:53:05;;;;;;;17.17;6.22;;;;;;;-4.94;100.00;98895.16;5024819;28;20036;-73
2023/12/04 01:55:32;;;;;;;18.15;6.60;;;;;;;-4.96;100.00;98897.03;5023852;28;20254;-73
2023/12/04 01:57:59;;;;;;;17.85;6.50;;;;;;;-4.93;100.00;98891.53;5025113;28;20029;-74
2023/12/04 02:00:25;;;;;;;16.00;6.15;;;;;;;-4.92;100.00;98904.66;5015964;28;20033;-74
2023/12/04 02:02:50;;;;;;;11.57;5.25;;;;;;;-4.86;100.00;98898.94;5038522;28;20029;-73
2023/12/04 02:05:16;;;;;;;13.77;6.10;;;;;;;-4.94;100.00;98895.16;5024419;28;20053;-73
2023/12/04 02:07:43;;;;;;;17.55;6.28;;;;;;;-4.94;100.00;98890.72;5021712;28;20274;-74
2023/12/04 02:10:08;;;;;;;15.02;6.40;;;;;;;-4.87;100.00;98896.44;5024104;28;20137;-73
2023/12/04 02:12:34;;;;;;;15.25;6.72;;;;;;;-4.93;100.00;98883.63;5024611;28;20097;-74
2023/12/04 02:15:00;;;;;;;19.05;6.93;;;;;;;-4.91;100.00;98889.66;4996875;28;20026;-73
2023/12/04 02:17:27;;;;;;;12.65;6.22;;;;;;;-5.05;100.00;98884.47;5006082;28;20033;-73
2023/12/04 02:19:53;;;;;;;18.23;6.75;;;;;;;-5.12;100.00;98890.16;5022619;28;20084;-73
2023/12/04 02:22:19;;;;;;;16.02;6.10;;;;;;;-5.05;100.00;98889.75;5009743;28;20335;-74
2023/12/04 02:24:45;;;;;;;12.57;5.82;;;;;;;-5.04;100.00;98889.63;5018227;28;20034;-74
2023/12/04 02:27:40;;;;;;;14.98;6.65;;;;;;;-5.09;100.00;98871.47;5006949;28;20088;-73
2023/12/04 02:30:11;;;;;;;14.23;5.72;;;;;;;-5.16;100.00;98879.91;5018842;28;20065;-74
2023/12/04 02:32:42;;;;;;;14.02;6.10;;;;;;;-5.09;100.00;98876.75;5006513;28;20036;-74
2023/12/04 02:35:09;;;;;;;17.48;6.85;;;;;;;-5.26;100.00;98857.75;5023477;28;20029;-73
2023/12/04 02:37:35;;;;;;;19.35;7.38;;;;;;;-5.21;100.00;98867.03;5016383;28;20045;-74
2023/12/04 02:40:02;;;;;;;18.00;7.72;;;;;;;-5.12;100.00;98863.78;5024059;28;20030;-74
2023/12/04 02:42:27;;;;;;;15.60;6.25;;;;;;;-5.12;100.00;98847.94;5006341;28;20021;-73
2023/12/04 02:44:52;;;;;;;16.60;6.97;;;;;;;-5.09;100.00;98854.81;5014789;28;20390;-73
2023/12/04 02:47:18;;;;;;;16.23;6.78;;;;;;;-5.09;100.00;98860.09;5021831;28;20080;-73
2023/12/04 02:49:43;;;;;;;16.17;6.68;;;;;;;-5.11;100.00;98847.00;5023339;28;20092;-73
2023/12/04 02:52:09;;;;;;;18.60;7.93;;;;;;;-5.18;100.00;98844.88;5023907;28;20026;-74
2023/12/04 02:54:34;;;;;;;20.55;7.50;;;;;;;-5.22;100.00;98833.69;5022490;28;20038;-73
2023/12/04 02:56:59;;;;;;;17.67;7.18;;;;;;;-5.28;100.00;98840.22;5023077;28;20315;-73
2023/12/04 02:59:25;;;;;;;18.52;7.15;;;;;;;-5.28;100.00;98842.00;5022785;28;20029;-74
2023/12/04 03:01:50;;;;;;;16.98;7.28;;;;;;;-5.33;100.00;98836.22;5018153;28;20234;-73
2023/12/04 03:04:15;;;;;;;17.45;7.57;;;;;;;-5.41;100.00;98834.06;5021087;28;20072;-73
2023/12/04 03:06:40;;;;;;;17.00;7.20;;;;;;;-5.40;100.00;98837.56;5023338;28;20038;-73
2023/12/04 03:09:06;;;;;;;15.60;5.97;;;;;;;-5.50;100.00;98824.16;5021099;28;20064;-74
2023/12/04 03:11:31;;;;;;;16.20;7.05;;;;;;;-5.55;100.00;98819.19;5017667;28;20107;-74
2023/12/04 03:13:57;;;;;;;19.83;7.57;;;;;;;-5.62;100.00;98812.63;5022778;28;20328;-74
2023/12/04 03:16:23;;;;;;;21.60;7.88;;;;;;;-5.66;100.00;98807.66;5023524;28;20033;-74
2023/12/04 03:18:48;;;;;;;16.90;7.32;;;;;;;-5.68;100.00;98799.03;5023205;28;20037;-73
2023/12/04 03:21:13;;;;;;;16.42;7.75;;;;;;;-5.64;100.00;98801.31;5023091;28;20025;-73
2023/12/04 03:23:38;;;;;;;16.45;7.28;;;;;;;-5.74;100.00;98797.59;5005383;28;20022;-73
2023/12/04 03:26:04;;;;;;;21.00;7.07;;;;;;;-5.73;100.00;98792.25;5021058;28;20061;-73
2023/12/04 03:28:29;;;;;;;20.48;8.90;;;;;;;-5.69;100.00;98790.25;5003723;28;20448;-73
2023/12/04 03:30:54;;;;;;;18.55;7.70;;;;;;;-5.67;100.00;98792.78;5007911;28;20026;-73
2023/12/04 03:33:20;;;;;;;22.90;8.23;;;;;;;-5.76;100.00;98792.47;5005926;28;20106;-73
2023/12/04 03:35:45;;;;;;;16.95;7.68;;;;;;;-5.71;100.00;98789.53;5011273;28;20029;-74
2023/12/04 03:38:10;;;;;;;17.30;7.47;;;;;;;-5.69;100.00;98777.06;5006438;28;20033;-73
2023/12/04 03:40:36;;;;;;;20.77;8.60;;;;;;;-5.63;100.00;98781.97;5029296;28;20033;-73
2023/12/04 03:43:01;;;;;;;18.08;8.18;;;;;;;-5.62;100.00;98785.44;5029601;28;20026;-73
2023/12/04 03:45:26;;;;;;;19.40;8.00;;;;;;;-5.66;100.00;98778.66;5029555;28;20245;-73
2023/12/04 03:47:52;;;;;;;18.83;7.43;;;;;;;-5.61;100.00;98772.13;5029637;28;20034;-74
2023/12/04 03:50:17;;;;;;;19.95;7.47;;;;;;;-5.58;100.00;98769.31;5027384;28;20032;-73
2023/12/04 03:52:42;;;;;;;19.98;8.18;;;;;;;-5.65;100.00;98761.91;5018502;28;20046;-73
2023/12/04 03:55:08;;;;;;;17.13;7.30;;;;;;;-5.60;100.00;98750.13;5020892;28;20036;-73
2023/12/04 03:57:34;;;;;;;19.13;7.13;;;;;;;-5.59;100.00;98735.13;5012669;28;20026;-73
2023/12/04 03:59:59;;;;;;;16.15;7.38;;;;;;;-5.58;100.00;98740.31;5020451;28;20033;-73
2023/12/04 04:02:24;;;;;;;14.52;6.25;;;;;;;-5.55;100.00;98745.38;5009798;28;20041;-73
2023/12/04 04:04:50;;;;;;;17.17;7.30;;;;;;;-5.59;100.00;98733.34;5009006;28;20057;-73
2023/12/04 04:07:17;;;;;;;22.70;8.18;;;;;;;-5.57;100.00;98727.97;5026176;28;20026;-73
2023/12/04 04:09:42;;;;;;;20.85;6.80;;;;;;;-5.59;100.00;98719.31;5029480;28;20057;-73
2023/12/04 04:12:09;;;;;;;20.13;7.47;;;;;;;-5.46;100.00;98729.88;5029905;28;20046;-73
2023/12/04 04:14:34;;;;;;;15.98;7.05;;;;;;;-5.56;100.00;98722.59;5029617;28;20037;-73
2023/12/04 04:16:59;;;;;;;17.95;8.15;;;;;;;-5.56;100.00;98730.50;5009130;28;20283;-73
2023/12/04 04:19:25;;;;;;;24.02;7.68;;;;;;;-5.55;100.00;98729.56;5011907;28;20084;-73
2023/12/04 04:21:50;;;;;;;16.73;7.82;;;;;;;-5.54;100.00;98720.69;5029386;28;20037;-73
2023/12/04 04:24:15;;;;;;;22.83;7.80;;;;;;;-5.59;100.00;98724.59;5011272;28;20029;-73
2023/12/04 04:26:41;;;;;;;23.55;9.05;;;;;;;-5.58;100.00;98716.59;5003261;28;20034;-74
2023/12/04 04:29:06;;;;;;;20.27;7.85;;;;;;;-5.61;100.00;98722.06;5019263;28;20076;-73
2023/12/04 04:31:31;;;;;;;16.98;7.43;;;;;;;-5.55;100.00;98732.19;5029239;28;20030;-77
2023/12/04 04:33:56;;;;;;;18.80;7.70;;;;;;;-5.63;100.00;98715.19;5010664;28;20033;-76
2023/12/04 04:36:22;;;;;;;18.25;7.68;;;;;;;-5.55;100.00;98720.81;5010242;28;20358;-76
2023/12/04 04:38:47;;;;;;;19.00;7.72;;;;;;;-5.59;100.00;98720.16;5003890;28;20030;-76
2023/12/04 04:41:15;;;;;;;16.60;7.03;;;;;;;-5.57;100.00;98717.44;5011398;28;20061;-75
2023/12/04 04:43:40;;;;;;;22.17;7.20;;;;;;;-5.45;100.00;98715.75;5026420;28;20040;-75
2023/12/04 04:46:05;;;;;;;19.48;7.68;;;;;;;-5.42;100.00;98720.81;5001283;28;20061;-75
2023/12/04 04:48:31;;;;;;;18.55;6.90;;;;;;;-5.26;100.00;98723.25;5025941;28;20025;-75
2023/12/04 04:50:56;;;;;;;16.15;6.80;;;;;;;-5.20;100.00;98736.84;5025951;28;20231;-76
2023/12/04 04:53:21;;;;;;;19.73;7.15;;;;;;;-5.25;100.00;98723.13;5006607;28;20351;-76
2023/12/04 04:55:47;;;;;;;19.88;7.70;;;;;;;-5.28;100.00;98724.19;5025061;28;20041;-73
2023/12/04 04:58:12;;;;;;;16.35;6.40;;;;;;;-5.32;100.00;98712.19;5008401;28;20030;-76
2023/12/04 05:00:37;;;;;;;15.18;6.40;;;;;;;-5.31;100.00;98731.47;5008314;28;20034;-74
2023/12/04 05:03:02;;;;;;;17.65;7.05;;;;;;;-5.37;100.00;98713.44;5007833;28;20235;-78
2023/12/04 05:05:28;;;;;;;16.50;6.88;;;;;;;-5.32;100.00;98719.22;5009698;28;20365;-78
2023/12/04 05:07:53;;;;;;;15.52;6.53;;;;;;;-5.38;100.00;98717.03;5008533;28;20033;-77
2023/12/04 05:10:18;;;;;;;20.45;7.15;;;;;;;-5.32;100.00;98711.31;5008675;28;20315;-78
2023/12/04 05:12:44;;;;;;;19.10;6.95;;;;;;;-5.27;100.00;98717.13;5017202;28;20009;-79
2023/12/04 05:15:09;;;;;;;18.08;6.68;;;;;;;-5.35;100.00;98717.66;5020169;28;20021;-80
2023/12/04 05:17:34;;;;;;;20.45;7.28;;;;;;;-5.46;100.00;98707.00;5021303;28;20121;-79
2023/12/04 05:20:00;;;;;;;14.38;5.85;;;;;;;-5.35;100.00;98711.53;5020693;28;20048;-78
2023/12/04 05:22:25;;;;;;;15.25;6.72;;;;;;;-5.40;100.00;98705.72;5020978;28;20025;-79
2023/12/04 05:24:50;;;;;;;17.58;7.10;;;;;;;-5.43;100.00;98695.41;5021836;28;20025;-79
2023/12/04 05:27:16;;;;;;;16.65;6.90;;;;;;;-5.36;100.00;98710.69;5036585;28;20026;-75
2023/12/04 05:29:41;;;;;;;19.45;7.13;;;;;;;-5.30;100.00;98704.16;5019816;28;20013;-74
2023/12/04 05:32:06;;;;;;;20.38;7.85;;;;;;;-5.34;100.00;98702.69;5036865;28;20022;-73
2023/12/04 05:34:31;;;;;;;18.45;6.93;;;;;;;-5.35;100.00;98693.91;5020350;28;20026;-73
2023/12/04 05:36:57;;;;;;;20.30;7.43;;;;;;;-5.35;100.00;98691.28;5003645;28;20029;-73
2023/12/04 05:39:22;;;;;;;20.25;7.65;;;;;;;-5.37;100.00;98681.78;5021009;28;20022;-73
2023/12/04 05:41:47;;;;;;;15.32;6.57;;;;;;;-5.31;100.00;98670.84;5025817;28;20018;-73
2023/12/04 05:44:13;;;;;;;13.73;6.25;;;;;;;-5.30;100.00;98661.97;5024479;28;20026;-73
2023/12/04 05:46:39;;;;;;;17.75;7.07;;;;;;;-5.21;100.00;98666.59;5006692;28;20032;-72
2023/12/04 05:49:04;;;;;;;19.85;7.90;;;;;;;-5.19;100.00;98656.78;5022293;28;20053;-73
2023/12/04 05:51:29;;;;;;;19.95;7.85;;;;;;;-5.22;100.00;98642.97;5012616;28;20089;-73
2023/12/04 05:53:54;;;;;;;17.75;8.00;;;;;;;-5.22;100.00;98645.59;5023143;28;20067;-74
2023/12/04 05:56:20;;;;;;;18.02;8.02;;;;;;;-5.09;100.00;98633.25;5005490;28;20022;-74
2023/12/04 05:58:45;;;;;;;17.55;7.10;;;;;;;-4.99;100.00;98649.25;5022293;28;20339;-76
2023/12/04 06:01:10;;;;;;;20.90;8.82;;;;;;;-5.04;100.00;98652.22;5019720;28;20045;-76
2023/12/04 06:03:36;;;;;;;24.50;9.68;;;;;;;-5.04;100.00;98661.94;5000757;28;20030;-78
2023/12/04 06:06:01;;;;;;;20.98;8.90;;;;;;;-5.15;100.00;98655.63;5008177;28;20048;-74
2023/12/04 06:08:26;;;;;;;16.60;8.07;;;;;;;-5.02;100.00;98665.31;5010582;28;20068;-74
2023/12/04 06:10:52;;;;;;;17.25;7.25;;;;;;;-5.15;100.00;98649.50;5005376;28;20026;-77
2023/12/04 06:13:17;;;;;;;15.73;7.20;;;;;;;-5.20;100.00;98663.00;5006163;28;20028;-73
2023/12/04 06:15:43;;;;;;;16.95;6.43;;;;;;;-5.24;100.00;98642.22;5006552;28;20033;-80
2023/12/04 06:18:26;;;;;;;16.67;6.63;;;;;;;-5.15;100.00;98663.53;5024784;28;20034;-83
2023/12/04 06:20:52;;;;;;;14.55;5.90;;;;;;;-5.24;100.00;98648.38;5013718;28;20048;-76
2023/12/04 06:23:18;;;;;;;12.60;5.93;;;;;;;-5.17;100.00;98657.50;5017601;28;20053;-79
2023/12/04 06:25:43;;;;;;;13.05;5.78;;;;;;;-5.22;100.00;98649.09;5010348;28;20097;-78
2023/12/04 06:28:11;;;;;;;14.93;5.93;;;;;;;-5.46;100.00;98614.75;5024502;28;20025;-81
2023/12/04 06:30:37;;;;;;;16.77;6.35;;;;;;;-5.15;100.00;98652.97;5025306;28;20361;-75
2023/12/04 06:33:02;;;;;;;15.35;6.03;;;;;;;-5.07;100.00;98655.06;5003680;28;20023;-79
2023/12/04 06:35:28;;;;;;;13.30;5.65;;;;;;;-5.01;100.00;98661.72;5021838;28;20034;-78
2023/12/04 06:40:29;;;;;;;16.55;7.30;;;;;;;-4.96;100.00;98667.50;5375015;23;20278;-77
2023/12/04 06:42:54;;;;;;;15.00;6.07;;;;;;;-4.91;100.00;98678.56;5019106;28;20140;-77
2023/12/04 06:45:20;;;;;;;12.20;5.00;;;;;;;-4.92;100.00;98671.63;5032185;28;20088;-76
2023/12/04 06:47:47;;;;;;;17.27;6.03;;;;;;;-4.87;100.00;98659.78;5048889;28;20033;-75
2023/12/04 06:50:12;;;;;;;14.10;6.15;;;;;;;-4.74;100.00;98659.75;5005491;28;20073;-76
2023/12/04 06:52:38;;;;;;;14.50;5.55;;;;;;;-4.80;100.00;98651.41;5044359;22;20042;-77
2023/12/04 06:55:03;;;;;;;12.95;5.60;;;;;;;-4.71;100.00;98666.59;5005623;28;20030;-74
2023/12/04 06:57:29;;;;;;;10.82;5.38;;;;;;;-4.87;100.00;98643.13;5025017;28;20033;-76
2023/12/04 06:59:54;;;;;;;13.50;5.97;;;;;;;-4.82;100.00;98646.28;5006455;28;20060;-77
2023/12/04 07:02:19;;;;;;;13.25;5.90;;;;;;;-4.71;100.00;98648.97;5005548;28;20053;-75
2023/12/04 07:04:45;;;;;;;14.23;5.32;;;;;;;-4.90;100.00;98616.94;5025586;28;20036;-77
2023/12/04 07:07:12;;;;;;;12.32;5.55;;;;;;;-4.94;100.00;98607.56;5006704;28;20334;-71
2023/12/04 07:09:41;;;;;;;18.63;6.82;;;;;;;-4.70;100.00;98645.38;5024784;28;20025;-73
2023/12/04 07:12:07;;;;;;;15.38;6.97;;;;;;;-4.76;100.00;98629.97;5022088;28;20032;-74
2023/12/04 07:14:33;;;;;;;16.05;6.72;;;;;;;-4.60;100.00;98620.94;5005911;28;20029;-77
2023/12/04 07:16:58;;;;;;;16.85;6.78;;;;;;;-4.48;100.00;98634.09;5006579;28;20080;-77
2023/12/04 07:19:24;;;;;;;16.15;7.47;;;;;;;-4.58;100.00;98606.69;5005104;28;20033;-75
2023/12/04 07:21:49;;;;;;;23.00;10.55;;;;;;;-4.42;100.00;98628.34;5013854;28;20322;-77
2023/12/04 07:24:16;;;;;;;28.67;11.48;;;;;;;-4.38;100.00;98607.84;5006909;28;20026;-72
2023/12/04 07:26:41;;;;;;;23.67;10.35;;;;;;;-4.39;100.00;98600.88;5022470;28;20258;-71
2023/12/04 07:29:07;;;;;;;18.05;7.90;;;;;;;-4.10;100.00;98627.75;5022692;28;20124;-72
2023/12/04 07:31:32;;;;;;;18.05;7.10;;;;;;;-4.04;100.00;98611.44;5047837;28;20093;-71
2023/12/04 07:34:00;;;;;;;18.90;7.25;;;;;;;-3.84;100.00;98612.56;5018702;28;20053;-71
2023/12/04 07:36:25;;;;;;;21.80;8.95;;;;;;;-3.76;100.00;98589.03;5019449;28;20089;-72
2023/12/04 07:38:53;;;;;;;22.05;9.13;;;;;;;-3.85;100.00;98579.19;5012693;28;20037;-72
2023/12/04 07:41:20;;;;;;;19.63;7.93;;;;;;;-3.80;100.00;98568.22;5024055;28;20028;-72
2023/12/04 07:43:46;;;;;;;17.02;7.88;;;;;;;-3.79;100.00;98568.13;5005479;28;20040;-73
2023/12/04 07:46:11;;;;;;;19.27;7.55;;;;;;;-3.79;100.00;98572.56;5006152;28;20215;-73
2023/12/04 07:48:37;;;;;;;21.63;8.15;;;;;;;-3.57;100.00;98580.50;5022896;28;20084;-73
2023/12/04 07:51:02;;;;;;;22.70;8.88;;;;;;;-3.33;100.00;98593.63;5006026;28;20323;-72
2023/12/04 07:53:28;;;;;;;22.25;8.85;;;;;;;-3.10;100.00;98601.53;5018638;28;20089;-73
2023/12/04 07:55:53;;;;;;;17.27;7.88;;;;;;;-2.98;100.00;98584.69;5024611;28;20067;-72
2023/12/04 07:58:18;;;;;;;17.80;8.15;;;;;;;-2.99;100.00;98559.16;5012974;28;20022;-72
2023/12/04 08:00:44;;;;;;;17.00;7.00;;;;;;;-2.62;100.00;98573.88;5003194;28;20319;-71
2023/12/04 08:03:10;;;;;;;12.50;5.63;;;;;;;-2.61;100.00;98571.09;5004630;28;20037;-70
2023/12/04 08:05:35;;;;;;;13.65;6.43;;;;;;;-2.67;100.00;98550.44;5005498;28;20307;-71
2023/12/04 08:08:00;;;;;;;16.65;6.32;;;;;;;-2.56;100.00;98563.63;5002240;28;20022;-70
2023/12/04 08:10:25;;;;;;;19.35;7.65;;;;;;;-2.54;100.00;98561.69;5005098;28;20022;-70
2023/12/04 08:12:51;;;;;;;18.20;7.70;;;;;;;-2.59;100.00;98558.59;5020710;28;20052;-72
2023/12/04 08:15:16;;;;;;;19.25;7.32;;;;;;;-2.60;100.00;98551.59;4997607;28;20022;-73
2023/12/04 08:17:42;;;;;;;12.48;5.63;;;;;;;-2.48;100.00;98523.25;5019205;28;20062;-71
2023/12/04 08:20:11;;;;;;;12.65;5.10;;;;;;;-2.35;100.00;98534.50;5009674;28;20022;-71
2023/12/04 08:22:38;;;;;;;11.27;5.13;;;;;;;-2.23;100.00;98520.25;5023751;28;20029;-72
2023/12/04 08:25:04;;;;;;;11.73;5.55;;;;;;;-2.24;100.00;98510.59;5000363;28;20136;-72
2023/12/04 08:27:32;;;;;;;12.40;4.78;;;;;;;-2.28;100.00;98506.53;5008022;28;20326;-71
2023/12/04 08:29:57;;;;;;;12.55;5.80;;;;;;;-2.29;100.00;98507.47;5021167;28;20102;-71
2023/12/04 08:32:23;;;;;;;12.52;5.32;;;;;;;-2.22;100.00;98519.25;5001346;28;20235;-71
2023/12/04 08:34:48;;;;;;;12.27;5.43;;;;;;;-2.31;100.00;98527.13;5005378;28;20352;-72
2023/12/04 08:37:13;;;;;;;10.73;5.03;;;;;;;-2.33;100.00;98523.75;5024687;28;20033;-71
2023/12/04 08:39:39;;;;;;;11.15;4.82;;;;;;;-2.24;100.00;98525.66;5008195;28;20046;-72
2023/12/04 08:42:04;;;;;;;13.05;5.22;;;;;;;-1.87;100.00;98535.78;5020178;28;20345;-73
2023/12/04 08:44:30;;;;;;;7.55;3.90;;;;;;;-1.92;100.00;98519.41;5012835;28;20026;-74
2023/12/04 08:46:57;;;;;;;8.15;3.85;;;;;;;-1.74;100.00;98517.00;5025779;28;20018;-74
2023/12/04 08:49:22;;;;;;;10.23;3.88;;;;;;;-1.71;100.00;98517.56;5024208;28;20026;-73
2023/12/04 08:51:48;;;;;;;7.57;4.13;;;;;;;-1.79;100.00;98504.13;5010182;28;20057;-74
2023/12/04 08:54:13;;;;;;;8.55;3.90;;;;;;;-1.67;100.00;98500.44;5005509;28;20030;-74
2023/12/04 08:56:38;;;;;;;8.93;4.18;;;;;;;-1.62;100.00;98503.53;5004297;28;20032;-73
2023/12/04 08:59:04;;;;;;;9.80;4.43;;;;;;;-1.59;100.00;98492.63;5005340;28;20029;-74
2023/12/04 09:01:29;;;;;;;13.27;4.30;;;;;;;-1.63;100.00;98515.09;5005915;28;20033;-74
2023/12/04 09:03:55;;;;;;;10.20;4.97;;;;;;;-1.73;100.00;98498.28;5007593;28;20044;-75
2023/12/04 09:06:21;;;;;;;12.82;4.68;;;;;;;-1.83;100.00;98508.03;5008526;28;20022;-74
2023/12/04 09:08:46;;;;;;;11.25;4.47;;;;;;;-1.82;100.00;98507.91;5024524;28;20032;-73
2023/12/04 09:11:11;;;;;;;8.60;4.30;;;;;;;-1.88;100.00;98491.69;5007963;28;20200;-74
2023/12/04 09:13:38;;;;;;;7.65;3.67;;;;;;;-1.76;100.00;98509.16;5026035;28;20230;-72
2023/12/04 09:16:04;;;;;;;8.95;4.70;;;;;;;-1.66;100.00;98519.84;5023978;28;20026;-73
2023/12/04 09:18:29;;;;;;;11.68;4.18;;;;;;;-1.76;100.00;98519.78;5048950;22;20107;-49
2023/12/04 09:20:54;;;;;;;11.60;4.60;;;;;;;-1.67;100.00;98520.81;5014636;28;20052;-49
2023/12/04 09:23:20;;;;;;;13.00;4.85;;;;;;;-1.42;100.00;98525.63;5014275;28;20024;-49
2023/12/04 09:25:45;;;;;;;12.00;4.68;;;;;;;-1.46;100.00;98516.28;4999977;28;20394;-49
2023/12/04 09:28:11;;;;;;;10.05;4.13;;;;;;;-1.42;100.00;98532.75;4993742;28;20125;-49
2023/12/04 09:30:37;;;;;;;9.00;4.15;;;;;;;-1.55;100.00;98539.16;4989522;28;20057;-49
2023/12/04 09:33:03;;;;;;;13.45;4.35;;;;;;;-1.61;100.00;98534.38;5007201;28;20487;-50
2023/12/04 09:35:28;;;;;;;13.73;4.00;;;;;;;-1.63;100.00;98536.31;4998855;28;20120;-49
2023/12/04 09:37:54;;;;;;;9.38;4.00;;;;;;;-1.52;100.00;98531.88;4990630;28;20025;-49
2023/12/04 09:40:19;;;;;;;9.98;3.97;;;;;;;-1.50;100.00;98517.50;4988024;28;20022;-49
2023/12/04 09:42:45;;;;;;;10.57;4.30;;;;;;;-1.53;100.00;98527.56;4996915;28;20021;-49
2023/12/04 09:45:12;;;;;;;11.40;4.45;;;;;;;-1.41;100.00;98521.19;5002716;28;20060;-49
2023/12/04 09:47:37;;;;;;;13.00;5.03;;;;;;;-1.35;100.00;98513.53;4999599;28;20096;-49
2023/12/04 09:50:05;;;;;;;8.82;4.32;;;;;;;-1.30;100.00;98514.94;4988288;28;20050;-49
2023/12/04 09:52:31;;;;;;;8.77;4.30;;;;;;;-1.20;100.00;98516.66;4998117;28;20029;-49
2023/12/04 09:54:56;;;;;;;11.43;4.32;;;;;;;-1.00;100.00;98514.00;5000601;28;20029;-49
2023/12/04 09:57:24;;;;;;;17.92;4.72;;;;;;;-1.04;100.00;98508.16;4998641;28;20493;-49
2023/12/04 09:59:51;;;;;;;13.45;5.05;;;;;;;-0.95;100.00;98498.50;4993279;28;20029;-49
2023/12/04 10:02:17;;;;;;;10.90;4.43;;;;;;;-0.87;100.00;98506.63;4999344;28;20041;-49
2023/12/04 10:04:43;;;;;;;11.55;4.93;;;;;;;-0.86;100.00;98503.00;4999188;28;20169;-49
2023/12/04 10:07:08;;;;;;;14.90;5.00;;;;;;;-0.70;100.00;98492.66;5004594;28;20393;-49
2023/12/04 10:09:34;;;;;;;11.18;4.68;;;;;;;-0.69;100.00;98502.31;4988488;28;20036;-55
2023/12/04 10:11:59;;;;;;;13.07;5.68;;;;;;;-0.65;100.00;98494.91;4992813;28;20431;-49
2023/12/04 10:14:25;;;;;;;12.68;5.20;;;;;;;-0.94;100.00;98506.34;4991138;28;20065;-49
2023/12/04 10:16:52;;;;;;;11.68;4.65;;;;;;;-1.00;100.00;98496.25;4992838;28;20034;-49
2023/12/04 10:19:25;;;;;;;9.30;4.57;;;;;;;-1.01;100.00;98489.28;4996040;28;20071;-49
2023/12/04 10:21:52;;;;;;;12.20;4.63;;;;;;;-1.04;100.00;98473.63;4997071;28;20033;-50
2023/12/04 10:24:37;;;;;;;14.70;5.35;;;;;;;-1.09;100.00;98483.81;4995295;28;20033;-50
2023/12/04 10:27:08;;;;;;;18.42;5.43;;;;;;;-1.00;100.00;98482.97;5005280;28;20042;-49
2023/12/04 10:29:46;;;;;;;10.50;4.80;;;;;;;-0.90;100.00;98475.88;4990675;28;20030;-50
2023/12/04 10:32:12;;;;;;;9.57;3.90;;;;;;;-0.66;100.00;98471.97;4993256;28;20084;-49
2023/12/04 10:34:38;;;;;;;14.02;4.20;;;;;;;-0.56;100.00;98471.97;4997256;28;20030;-49
2023/12/04 10:37:05;;;;;;;10.40;4.30;;;;;;;-0.34;100.00;98466.34;4994555;28;20049;-49
2023/12/04 10:39:31;;;;;;;14.00;4.50;;;;;;;-0.13;100.00;98465.31;4982394;28;20034;-50
2023/12/04 10:42:01;;;;;;;14.30;5.32;;;;;;;-0.06;100.00;98453.13;5007990;28;20034;-50
2023/12/04 10:44:28;;;;;;;11.82;4.68;;;;;;;0.02;100.00;98450.56;4993689;28;20366;-50
2023/12/04 10:46:57;;;;;;;9.82;4.68;;;;;;;0.01;100.00;98454.22;4990779;28;20087;-49
2023/12/04 10:49:26;;;;;;;15.00;4.70;;;;;;;-0.08;100.00;98450.63;4992932;28;20033;-49
2023/12/04 10:51:52;;;;;;;11.05;4.30;;;;;;;-0.13;100.00;98446.69;5004339;28;20041;-50
2023/12/04 10:54:18;;;;;;;8.68;4.07;;;;;;;-0.50;100.00;98471.38;4992097;28;20036;-50
2023/12/04 10:56:45;;;;;;;15.82;4.47;;;;;;;-0.55;100.00;98473.63;4995501;28;20022;-50
2023/12/04 10:59:15;;;;;;;23.30;5.10;;;;;;;-0.47;100.00;98464.00;5010982;28;20021;-50
2023/12/04 11:01:44;;;;;;;8.63;4.90;;;;;;;-0.38;100.00;98456.16;4996713;28;20033;-50
2023/12/04 11:04:17;;;;;;;9.88;4.35;;;;;;;-0.32;100.00;98459.06;4998923;28;20029;-50
2023/12/04 11:06:45;;;;;;;9.90;4.45;;;;;;;-0.22;100.00;98454.56;4993613;28;20389;-50
2023/12/04 11:09:11;;;;;;;9.18;4.57;;;;;;;-0.32;100.00;98443.09;4992595;28;20029;-50
2023/12/04 11:11:44;;;;;;;9.77;4.80;;;;;;;-0.29;100.00;98418.91;4997343;28;20036;-50
2023/12/04 11:14:11;;;;;;;9.02;4.10;;;;;;;-0.30;100.00;98411.91;4993238;28;20029;-49